Time,TemperatureF,DewpointF,PressureIn,WindDirection,WindDirectionDegrees,WindSpeedMPH,WindSpeedGustMPH,Humidity,HourlyPrecipIn,Conditions,Clouds,dailyrainin,SoftwareType,DateUTC
2013-02-02 00:00:00,9.7,3.1,29.47,NNW,338,1.3,1.3,74,0.00,,,0.00,WUHU216HW,2013-02-02 05:00:00,
2013-02-02 00:05:00,9.7,3.1,29.47,NNW,338,1.3,1.3,74,0.00,,,0.00,WUHU216HW,2013-02-02 05:05:00,
2013-02-02 00:30:00,9.5,3.2,29.47,WNW,293,2.5,2.5,75,0.00,,,0.00,WUHU216HW,2013-02-02 05:30:00,
2013-02-02 00:35:00,9.5,3.2,29.47,WNW,293,2.5,2.5,75,0.00,,,0.00,WUHU216HW,2013-02-02 05:35:00,
2013-02-02 01:00:00,9.4,3.2,29.47,WNW,293,2.2,2.2,76,0.00,,,0.00,WUHU216HW,2013-02-02 06:00:00,
2013-02-02 01:05:00,9.4,3.2,29.47,WNW,293,2.2,2.2,76,0.00,,,0.00,WUHU216HW,2013-02-02 06:05:00,
2013-02-02 01:30:00,9.9,4.1,29.45,North,0,0.9,0.9,77,0.00,,,0.00,WUHU216HW,2013-02-02 06:30:00,
2013-02-02 01:35:00,9.9,4.1,29.45,North,0,0.9,0.9,77,0.00,,,0.00,WUHU216HW,2013-02-02 06:35:00,
2013-02-02 02:00:00,9.5,3.7,29.45,WNW,293,2.9,2.9,77,0.00,,,0.00,WUHU216HW,2013-02-02 07:00:00,
2013-02-02 02:05:00,9.5,3.7,29.45,WNW,293,2.9,2.9,77,0.00,,,0.00,WUHU216HW,2013-02-02 07:05:00,
2013-02-02 02:30:00,9.7,3.9,29.45,NW,315,0.4,0.4,77,0.00,,,0.00,WUHU216HW,2013-02-02 07:30:00,
2013-02-02 02:35:00,9.7,3.9,29.45,NW,315,0.4,0.4,77,0.00,,,0.00,WUHU216HW,2013-02-02 07:35:00,
2013-02-02 03:00:00,9.5,3.7,29.44,WNW,293,1.8,1.8,77,0.00,,,0.00,WUHU216HW,2013-02-02 08:00:00,
2013-02-02 03:05:00,9.5,3.7,29.44,WNW,293,1.8,1.8,77,0.00,,,0.00,WUHU216HW,2013-02-02 08:05:00,
2013-02-02 03:30:00,9.0,3.2,29.43,NW,315,0.4,0.4,77,0.00,,,0.00,WUHU216HW,2013-02-02 08:30:00,
2013-02-02 03:35:00,9.0,3.2,29.43,NW,315,0.4,0.4,77,0.00,,,0.00,WUHU216HW,2013-02-02 08:35:00,
2013-02-02 04:00:00,8.8,3.3,29.43,WNW,293,1.6,1.6,78,0.00,,,0.00,WUHU216HW,2013-02-02 09:00:00,
2013-02-02 04:05:00,8.8,3.3,29.43,WNW,293,1.6,1.6,78,0.00,,,0.00,WUHU216HW,2013-02-02 09:05:00,
2013-02-02 04:30:00,8.6,3.5,29.41,NW,315,1.3,1.3,79,0.00,,,0.00,WUHU216HW,2013-02-02 09:30:00,
2013-02-02 04:35:00,8.6,3.5,29.41,NW,315,1.3,1.3,79,0.00,,,0.00,WUHU216HW,2013-02-02 09:35:00,
2013-02-02 05:00:00,8.6,3.3,29.41,West,270,1.3,1.3,78,0.00,,,0.00,WUHU216HW,2013-02-02 10:00:00,
2013-02-02 05:05:00,8.6,3.3,29.41,West,270,1.3,1.3,78,0.00,,,0.00,WUHU216HW,2013-02-02 10:05:00,
2013-02-02 05:30:00,9.0,3.5,29.41,WNW,293,3.8,3.8,78,0.00,,,0.00,WUHU216HW,2013-02-02 10:30:00,
2013-02-02 05:35:00,9.0,3.5,29.41,WNW,293,3.8,3.8,78,0.00,,,0.00,WUHU216HW,2013-02-02 10:35:00,
2013-02-02 06:00:00,9.5,4.1,29.39,NW,315,1.8,1.8,78,0.00,,,0.00,WUHU216HW,2013-02-02 11:00:00,
2013-02-02 06:05:00,9.5,4.1,29.39,NW,315,1.8,1.8,78,0.00,,,0.00,WUHU216HW,2013-02-02 11:05:00,
2013-02-02 06:30:00,9.7,4.5,29.39,WNW,293,1.6,1.6,79,0.00,,,0.00,WUHU216HW,2013-02-02 11:30:00,
2013-02-02 06:35:00,9.7,4.5,29.39,WNW,293,1.6,1.6,79,0.00,,,0.00,WUHU216HW,2013-02-02 11:35:00,
2013-02-02 07:00:00,10.4,4.9,29.39,NW,315,4.7,4.7,78,0.00,,,0.00,WUHU216HW,2013-02-02 12:00:00,
2013-02-02 07:05:00,10.4,4.9,29.39,NW,315,4.7,4.7,78,0.00,,,0.00,WUHU216HW,2013-02-02 12:05:00,
2013-02-02 07:30:00,10.6,5.3,29.39,WNW,293,2.2,2.2,79,0.00,,,0.00,WUHU216HW,2013-02-02 12:30:00,
2013-02-02 07:35:00,10.6,5.3,29.39,WNW,293,2.2,2.2,79,0.00,,,0.00,WUHU216HW,2013-02-02 12:35:00,
2013-02-02 08:00:00,11.2,5.9,29.38,NW,315,3.6,3.6,79,0.00,,,0.00,WUHU216HW,2013-02-02 13:00:00,
2013-02-02 08:05:00,11.2,5.9,29.38,NW,315,3.6,3.6,79,0.00,,,0.00,WUHU216HW,2013-02-02 13:05:00,
2013-02-02 08:30:00,12.2,6.9,29.37,WNW,293,4.0,4.0,79,0.00,,,0.00,WUHU216HW,2013-02-02 13:30:00,
2013-02-02 08:35:00,12.2,6.9,29.37,WNW,293,4.0,4.0,79,0.00,,,0.00,WUHU216HW,2013-02-02 13:35:00,
2013-02-02 09:00:00,13.3,8.0,29.36,NW,315,2.7,2.7,79,0.00,,,0.00,WUHU216HW,2013-02-02 14:00:00,
2013-02-02 09:05:00,13.3,8.0,29.36,NW,315,2.7,2.7,79,0.00,,,0.00,WUHU216HW,2013-02-02 14:05:00,
2013-02-02 09:30:00,14.4,8.8,29.34,WNW,293,4.7,4.7,78,0.00,,,0.00,WUHU216HW,2013-02-02 14:30:00,
2013-02-02 09:35:00,14.4,8.8,29.34,WNW,293,4.7,4.7,78,0.00,,,0.00,WUHU216HW,2013-02-02 14:35:00,
2013-02-02 10:00:00,14.9,9.3,29.33,WNW,293,5.4,5.4,78,0.00,,,0.00,WUHU216HW,2013-02-02 15:00:00,
2013-02-02 10:05:00,14.9,9.3,29.33,WNW,293,5.4,5.4,78,0.00,,,0.00,WUHU216HW,2013-02-02 15:05:00,
2013-02-02 10:30:00,15.8,10.8,29.32,NW,315,3.8,3.8,80,0.00,,,0.00,WUHU216HW,2013-02-02 15:30:00,
2013-02-02 10:35:00,15.8,10.8,29.32,NW,315,3.8,3.8,80,0.00,,,0.00,WUHU216HW,2013-02-02 15:35:00,
2013-02-02 11:00:00,17.3,11.8,29.31,WNW,293,3.8,3.8,79,0.00,,,0.00,WUHU216HW,2013-02-02 16:00:00,
2013-02-02 11:05:00,17.3,11.8,29.31,WNW,293,3.8,3.8,79,0.00,,,0.00,WUHU216HW,2013-02-02 16:05:00,
2013-02-02 11:30:00,18.7,13.2,29.28,WNW,293,2.9,2.9,79,0.00,,,0.00,WUHU216HW,2013-02-02 16:30:00,
2013-02-02 11:35:00,18.7,13.2,29.28,WNW,293,2.9,2.9,79,0.00,,,0.00,WUHU216HW,2013-02-02 16:35:00,
2013-02-02 12:00:00,20.7,15.2,29.26,WNW,293,5.4,5.4,79,0.00,,,0.00,WUHU216HW,2013-02-02 17:00:00,
2013-02-02 12:05:00,20.7,15.2,29.26,WNW,293,5.4,5.4,79,0.00,,,0.00,WUHU216HW,2013-02-02 17:05:00,
2013-02-02 12:30:00,21.8,15.3,29.24,NW,315,6.7,6.7,76,0.00,,,0.00,WUHU216HW,2013-02-02 17:30:00,
2013-02-02 12:35:00,21.8,15.3,29.24,NW,315,6.7,6.7,76,0.00,,,0.00,WUHU216HW,2013-02-02 17:35:00,
2013-02-02 13:00:00,22.7,16.6,29.22,NW,315,3.6,3.6,77,0.00,,,0.00,WUHU216HW,2013-02-02 18:00:00,
2013-02-02 13:05:00,22.7,16.6,29.22,NW,315,3.6,3.6,77,0.00,,,0.00,WUHU216HW,2013-02-02 18:05:00,
2013-02-02 13:30:00,22.9,17.0,29.20,NW,315,4.0,4.0,78,0.00,,,0.00,WUHU216HW,2013-02-02 18:30:00,
2013-02-02 13:35:00,22.9,17.0,29.20,NW,315,4.0,4.0,78,0.00,,,0.00,WUHU216HW,2013-02-02 18:35:00,
2013-02-02 14:00:00,23.6,17.5,29.18,West,270,5.4,5.4,77,0.00,,,0.00,WUHU216HW,2013-02-02 19:00:00,
2013-02-02 14:05:00,23.6,17.5,29.18,West,270,5.4,5.4,77,0.00,,,0.00,WUHU216HW,2013-02-02 19:05:00,
2013-02-02 14:30:00,23.4,17.6,29.17,WNW,293,6.7,6.7,78,0.00,,,0.00,WUHU216HW,2013-02-02 19:30:00,
2013-02-02 14:35:00,23.4,17.6,29.17,WNW,293,6.7,6.7,78,0.00,,,0.00,WUHU216HW,2013-02-02 19:35:00,
2013-02-02 15:00:00,23.4,17.6,29.16,NW,315,7.6,7.6,78,0.00,,,0.00,WUHU216HW,2013-02-02 20:00:00,
2013-02-02 15:05:00,23.4,17.6,29.16,NW,315,7.6,7.6,78,0.00,,,0.00,WUHU216HW,2013-02-02 20:05:00,
2013-02-02 15:30:00,23.4,18.5,29.16,NW,315,4.0,4.0,81,0.00,,,0.00,WUHU216HW,2013-02-02 20:30:00,
2013-02-02 15:35:00,23.4,18.5,29.16,NW,315,4.0,4.0,81,0.00,,,0.00,WUHU216HW,2013-02-02 20:35:00,
2013-02-02 16:00:00,23.8,19.1,29.16,NW,315,2.2,2.2,82,0.00,,,0.00,WUHU216HW,2013-02-02 21:00:00,
2013-02-02 16:05:00,23.8,19.1,29.16,NW,315,2.2,2.2,82,0.00,,,0.00,WUHU216HW,2013-02-02 21:05:00,
2013-02-02 16:30:00,23.9,19.3,29.15,WNW,293,2.0,2.0,82,0.00,,,0.00,WUHU216HW,2013-02-02 21:30:00,
2013-02-02 16:35:00,23.9,19.3,29.15,WNW,293,2.0,2.0,82,0.00,,,0.00,WUHU216HW,2013-02-02 21:35:00,
2013-02-02 17:00:00,23.4,19.0,29.16,NW,315,0.7,0.7,83,0.00,,,0.00,WUHU216HW,2013-02-02 22:00:00,
2013-02-02 17:05:00,23.4,19.0,29.16,NW,315,0.7,0.7,83,0.00,,,0.00,WUHU216HW,2013-02-02 22:05:00,
2013-02-02 17:30:00,23.0,18.9,29.15,WNW,293,2.5,2.5,84,0.00,,,0.00,WUHU216HW,2013-02-02 22:30:00,
2013-02-02 17:35:00,23.0,18.9,29.15,WNW,293,2.5,2.5,84,0.00,,,0.00,WUHU216HW,2013-02-02 22:35:00,
2013-02-02 18:00:00,22.9,19.0,29.16,NNW,338,1.8,1.8,85,0.00,,,0.00,WUHU216HW,2013-02-02 23:00:00,
2013-02-02 18:05:00,22.9,19.0,29.16,NNW,338,1.8,1.8,85,0.00,,,0.00,WUHU216HW,2013-02-02 23:05:00,
2013-02-02 18:30:00,22.7,18.8,29.16,WNW,293,1.8,1.8,85,0.00,,,0.00,WUHU216HW,2013-02-02 23:30:00,
2013-02-02 18:35:00,22.7,18.8,29.16,WNW,293,1.8,1.8,85,0.00,,,0.00,WUHU216HW,2013-02-02 23:35:00,
2013-02-02 19:00:00,22.7,18.8,29.16,WNW,293,1.1,1.1,85,0.00,,,0.00,WUHU216HW,2013-02-03 00:00:00,
2013-02-02 19:05:00,22.7,18.8,29.16,WNW,293,1.1,1.1,85,0.00,,,0.00,WUHU216HW,2013-02-03 00:05:00,
2013-02-02 19:30:00,22.5,18.9,29.16,NW,315,1.6,1.6,86,0.00,,,0.00,WUHU216HW,2013-02-03 00:30:00,
2013-02-02 19:35:00,22.5,18.9,29.16,NW,315,1.6,1.6,86,0.00,,,0.00,WUHU216HW,2013-02-03 00:35:00,
2013-02-02 20:00:00,22.5,18.9,29.16,WNW,293,1.6,1.6,86,0.00,,,0.00,WUHU216HW,2013-02-03 01:00:00,
2013-02-02 20:05:00,22.5,18.9,29.16,WNW,293,1.6,1.6,86,0.00,,,0.00,WUHU216HW,2013-02-03 01:05:00,
2013-02-02 20:30:00,22.5,19.2,29.16,NNW,338,1.1,1.1,87,0.00,,,0.00,WUHU216HW,2013-02-03 01:30:00,
2013-02-02 20:35:00,22.5,19.2,29.16,NNW,338,1.1,1.1,87,0.00,,,0.00,WUHU216HW,2013-02-03 01:35:00,
2013-02-02 21:00:00,22.7,19.4,29.16,NW,315,1.1,1.1,87,0.00,,,0.00,WUHU216HW,2013-02-03 02:00:00,
2013-02-02 21:05:00,22.7,19.4,29.16,NW,315,1.1,1.1,87,0.00,,,0.00,WUHU216HW,2013-02-03 02:05:00,
2013-02-02 21:30:00,22.7,19.4,29.16,WNW,293,1.1,1.1,87,0.00,,,0.00,WUHU216HW,2013-02-03 02:30:00,
2013-02-02 21:35:00,22.7,19.4,29.16,WNW,293,1.1,1.1,87,0.00,,,0.00,WUHU216HW,2013-02-03 02:35:00,
2013-02-02 22:00:00,22.7,19.4,29.16,WNW,293,2.2,2.2,87,0.00,,,0.00,WUHU216HW,2013-02-03 03:00:00,
2013-02-02 22:05:00,22.7,19.4,29.16,WNW,293,2.2,2.2,87,0.00,,,0.00,WUHU216HW,2013-02-03 03:05:00,
2013-02-02 22:30:00,22.7,19.4,29.15,WNW,293,1.1,1.1,87,0.00,,,0.00,WUHU216HW,2013-02-03 03:30:00,
2013-02-02 22:35:00,22.7,19.4,29.15,WNW,293,1.1,1.1,87,0.00,,,0.00,WUHU216HW,2013-02-03 03:35:00,
2013-02-02 23:00:00,22.7,19.4,29.15,NW,315,1.1,1.1,87,0.00,,,0.00,WUHU216HW,2013-02-03 04:00:00,
2013-02-02 23:05:00,22.7,19.4,29.15,NW,315,1.1,1.1,87,0.00,,,0.00,WUHU216HW,2013-02-03 04:05:00,
2013-02-02 23:30:00,22.9,19.8,29.14,NW,315,2.0,2.0,88,0.00,,,0.00,WUHU216HW,2013-02-03 04:30:00,
2013-02-02 23:35:00,22.9,19.8,29.14,NW,315,2.0,2.0,88,0.00,,,0.00,WUHU216HW,2013-02-03 04:35:00,